Time;durP1;ratioP1;P1;durP2;ratioP2;P2;SDS_P1;SDS_P2;PMS_P1;PMS_P2;Temp;Humidity;BMP_temperature;BMP_pressure;BME280_temperature;BME280_humidity;BME280_pressure;Samples;Min_cycle;Max_cycle;Signal;HPM_P1;HPM_P2
2023/02/09 00:01:19;;;;;;;24.70;6.63;;;4.40;99.90;;;;;;5035831;28;20112;-91
2023/02/09 00:03:45;;;;;;;20.75;6.82;;;4.40;99.90;;;;;;5035402;28;20025;-90
2023/02/09 00:06:13;;;;;;;20.83;6.93;;;4.50;99.90;;;;;;5033888;28;20025;-89
2023/02/09 00:08:39;;;;;;;20.45;6.55;;;4.50;99.90;;;;;;5032829;28;20076;-88
2023/02/09 00:11:11;;;;;;;16.40;6.45;;;4.50;99.90;;;;;;5033500;28;20056;-88
2023/02/09 00:13:37;;;;;;;19.70;7.82;;;4.50;99.90;;;;;;5034261;28;20036;-88
2023/02/09 00:16:04;;;;;;;20.45;6.10;;;4.60;99.90;;;;;;5035002;28;20431;-89
2023/02/09 00:18:32;;;;;;;17.58;6.78;;;4.60;99.90;;;;;;5034575;28;20021;-89
2023/02/09 00:21:05;;;;;;;20.50;6.13;;;4.60;99.90;;;;;;5031989;28;20028;-89
2023/02/09 00:23:32;;;;;;;14.48;5.88;;;4.70;99.90;;;;;;5033938;28;20029;-88
2023/02/09 00:26:04;;;;;;;17.77;6.75;;;4.70;99.90;;;;;;5052688;28;20028;-89
2023/02/09 00:28:30;;;;;;;14.68;6.05;;;4.70;99.90;;;;;;5034311;28;20083;-89
2023/02/09 00:30:56;;;;;;;18.80;6.43;;;4.70;99.90;;;;;;5032267;28;20020;-89
2023/02/09 00:33:21;;;;;;;15.43;5.38;;;4.70;99.90;;;;;;5036600;28;20028;-88
2023/02/09 00:35:47;;;;;;;12.35;5.80;;;4.80;99.90;;;;;;5036266;28;20116;-89
2023/02/09 00:38:13;;;;;;;13.23;5.10;;;4.80;99.90;;;;;;5036109;28;20119;-90
2023/02/09 00:40:39;;;;;;;10.88;5.45;;;4.80;99.90;;;;;;5036110;28;20032;-88
2023/02/09 00:43:06;;;;;;;16.17;5.25;;;4.80;99.90;;;;;;5038333;28;20075;-88
2023/02/09 00:45:32;;;;;;;15.52;4.70;;;4.90;99.90;;;;;;5055730;28;20093;-89
2023/02/09 00:47:59;;;;;;;16.58;5.50;;;4.90;99.90;;;;;;5034722;28;20128;-89
2023/02/09 00:50:25;;;;;;;22.65;5.80;;;4.90;99.90;;;;;;5035365;28;20025;-88
2023/02/09 00:52:51;;;;;;;9.82;4.85;;;4.90;99.90;;;;;;5035863;28;20039;-88
2023/02/09 00:55:17;;;;;;;14.13;5.03;;;4.90;99.90;;;;;;5035077;28;20017;-89
2023/02/09 00:57:43;;;;;;;15.77;4.90;;;4.90;99.90;;;;;;5035462;28;20371;-88
2023/02/09 01:00:10;;;;;;;18.92;5.53;;;5.00;99.90;;;;;;5036106;28;20386;-88
2023/02/09 01:02:36;;;;;;;18.25;5.35;;;5.00;99.90;;;;;;5034380;28;20025;-90
2023/02/09 01:05:03;;;;;;;12.10;4.15;;;5.00;99.90;;;;;;5051781;28;20029;-88
2023/02/09 01:07:28;;;;;;;15.00;3.97;;;5.00;99.90;;;;;;5033863;28;20131;-88
2023/02/09 01:09:54;;;;;;;14.43;4.60;;;5.00;99.90;;;;;;5034061;28;20057;-88
2023/02/09 01:12:20;;;;;;;16.67;3.92;;;5.10;99.90;;;;;;5034172;28;20057;-89
2023/02/09 01:14:46;;;;;;;14.07;4.05;;;5.10;99.90;;;;;;5033981;28;20029;-88
2023/02/09 01:17:11;;;;;;;18.42;4.03;;;5.20;99.90;;;;;;5033901;28;20094;-89
2023/02/09 01:19:37;;;;;;;19.90;4.10;;;5.20;99.90;;;;;;5034031;28;20499;-88
2023/02/09 01:22:03;;;;;;;10.85;3.47;;;5.30;99.90;;;;;;5033702;28;20027;-89
2023/02/09 01:24:28;;;;;;;17.20;3.75;;;5.30;99.90;;;;;;5034011;28;20025;-88
2023/02/09 01:26:54;;;;;;;11.40;3.20;;;5.30;99.90;;;;;;5033861;28;20114;-89
2023/02/09 01:29:20;;;;;;;11.50;3.30;;;5.40;99.90;;;;;;5034097;28;20040;-88
2023/02/09 01:31:46;;;;;;;15.02;3.90;;;5.40;99.90;;;;;;5034558;28;20116;-90
2023/02/09 01:34:15;;;;;;;14.77;3.72;;;5.40;99.90;;;;;;5033933;28;20115;-88
2023/02/09 01:36:41;;;;;;;8.27;3.38;;;5.40;99.90;;;;;;5033827;28;20029;-89
2023/02/09 01:39:10;;;;;;;10.98;3.53;;;5.40;99.90;;;;;;5033866;28;20033;-88
2023/02/09 01:41:36;;;;;;;14.68;4.43;;;5.40;99.90;;;;;;5034415;28;20056;-88
2023/02/09 01:44:27;;;;;;;9.57;3.08;;;5.50;99.90;;;;;;5035662;28;20029;-90
2023/02/09 01:46:52;;;;;;;20.77;3.83;;;5.50;99.90;;;;;;5033606;28;20076;-88
2023/02/09 01:49:21;;;;;;;17.30;3.53;;;5.60;99.90;;;;;;5034841;28;20494;-89
2023/02/09 01:52:07;;;;;;;11.15;3.25;;;5.60;99.90;;;;;;5035725;28;20059;-89
2023/02/09 01:54:57;;;;;;;11.80;3.15;;;5.60;99.90;;;;;;5037019;28;20025;-89
2023/02/09 01:57:31;;;;;;;10.70;3.38;;;5.70;99.90;;;;;;5038658;28;20076;-89
2023/02/09 02:00:10;;;;;;;14.20;3.80;;;5.70;99.90;;;;;;5038779;28;20025;-88
2023/02/09 02:02:37;;;;;;;15.70;4.07;;;5.70;99.90;;;;;;5038290;28;20036;-90
2023/02/09 02:05:03;;;;;;;20.25;4.85;;;5.70;99.90;;;;;;5038964;28;20551;-88
2023/02/09 02:07:37;;;;;;;15.32;4.47;;;5.70;99.90;;;;;;5038222;28;20037;-88
2023/02/09 02:10:03;;;;;;;13.43;3.50;;;5.80;99.90;;;;;;5038558;28;20120;-89
2023/02/09 02:12:30;;;;;;;15.38;4.55;;;5.80;99.90;;;;;;5038064;28;20033;-88
2023/02/09 02:14:56;;;;;;;12.55;5.15;;;5.80;99.90;;;;;;5038052;28;20051;-89
2023/02/09 02:17:42;;;;;;;18.05;6.25;;;5.80;99.90;;;;;;5037871;28;20029;-89
2023/02/09 02:20:50;;;;;;;13.13;4.95;;;5.80;99.90;;;;;;5037715;28;20123;-89
2023/02/09 02:23:28;;;;;;;15.48;5.47;;;5.80;99.90;;;;;;5038090;28;20032;-89
2023/02/09 02:26:05;;;;;;;18.65;5.63;;;5.80;99.90;;;;;;5038011;28;20029;-89
2023/02/09 02:28:43;;;;;;;17.52;5.18;;;5.80;99.90;;;;;;5038231;28;20040;-89
2023/02/09 02:31:11;;;;;;;16.48;6.18;;;5.80;99.90;;;;;;5037673;28;20025;-89
2023/02/09 02:33:54;;;;;;;22.73;5.75;;;5.80;99.90;;;;;;5038105;28;20045;-89
2023/02/09 02:36:43;;;;;;;14.70;6.00;;;5.80;99.90;;;;;;5037689;28;20079;-89
2023/02/09 02:39:28;;;;;;;16.38;6.05;;;5.80;99.90;;;;;;5038305;28;20029;-89
2023/02/09 02:45:31;;;;;;;15.85;4.95;;;5.80;99.90;;;;;;5055978;28;20494;-89
2023/02/09 02:48:03;;;;;;;15.45;5.00;;;5.80;99.90;;;;;;5033551;28;20553;-89
2023/02/09 02:50:30;;;;;;;11.63;4.72;;;5.80;99.90;;;;;;5034191;28;20497;-90
2023/02/09 02:53:00;;;;;;;12.30;5.72;;;5.80;99.90;;;;;;5034866;28;20160;-89
2023/02/09 02:55:28;;;;;;;13.87;5.50;;;5.70;99.90;;;;;;5034317;28;20021;-88
2023/02/09 02:57:57;;;;;;;15.77;5.22;;;5.70;99.90;;;;;;5033345;28;20276;-88
2023/02/09 03:00:32;;;;;;;16.27;6.07;;;5.70;99.90;;;;;;5033381;28;20033;-89
2023/02/09 03:03:04;;;;;;;13.93;6.25;;;5.70;99.90;;;;;;5035070;28;20029;-90
2023/02/09 03:05:30;;;;;;;11.75;5.55;;;5.70;99.90;;;;;;5033851;28;20024;-87
2023/02/09 03:07:56;;;;;;;17.75;6.40;;;5.60;99.90;;;;;;5034085;28;20566;-90
2023/02/09 03:10:37;;;;;;;12.20;5.15;;;5.60;99.90;;;;;;5034446;28;20056;-90
2023/02/09 03:13:43;;;;;;;11.35;4.82;;;5.60;99.90;;;;;;5033885;28;20052;-90
2023/02/09 03:16:24;;;;;;;19.92;5.40;;;5.60;99.90;;;;;;4990046;28;20036;-90
2023/02/09 03:19:05;;;;;;;12.23;5.60;;;5.60;99.90;;;;;;5033315;28;20017;-89
2023/02/09 03:21:43;;;;;;;12.65;4.95;;;5.60;99.90;;;;;;5033168;28;20042;-89
2023/02/09 03:24:08;;;;;;;17.15;5.32;;;5.60;99.90;;;;;;5035536;28;20026;-90
2023/02/09 03:26:50;;;;;;;12.70;4.63;;;5.60;99.90;;;;;;5033746;28;20083;-90
2023/02/09 03:29:18;;;;;;;12.07;4.65;;;5.60;99.90;;;;;;5033360;28;20037;-89
2023/02/09 03:31:45;;;;;;;10.45;4.18;;;5.60;99.90;;;;;;5033269;28;20074;-89
2023/02/09 03:34:11;;;;;;;5.45;3.85;;;5.60;99.90;;;;;;5033625;28;20026;-90
2023/02/09 03:36:38;;;;;;;6.70;3.50;;;5.60;99.90;;;;;;5033586;28;20032;-90
2023/02/09 03:39:04;;;;;;;8.50;3.83;;;5.50;99.90;;;;;;5033490;28;20056;-89
2023/02/09 03:41:29;;;;;;;7.43;3.60;;;5.50;99.90;;;;;;5033439;28;20113;-90
2023/02/09 03:46:42;;;;;;;8.23;2.67;;;5.40;99.90;;;;;;5036128;28;20040;-90
2023/02/09 03:49:08;;;;;;;7.95;2.15;;;5.40;99.90;;;;;;5036298;28;20025;-90
2023/02/09 03:51:34;;;;;;;3.20;2.05;;;5.30;99.90;;;;;;5036199;28;20474;-89
2023/02/09 03:53:59;;;;;;;11.68;2.70;;;5.30;99.90;;;;;;5041155;28;20037;-90
2023/02/09 03:56:25;;;;;;;7.30;2.25;;;5.30;99.90;;;;;;5037786;28;20040;-90
2023/02/09 03:58:51;;;;;;;5.80;2.47;;;5.30;99.90;;;;;;5036836;28;20036;-90
2023/02/09 04:01:17;;;;;;;7.18;2.30;;;5.30;99.90;;;;;;5038094;28;20603;-90
2023/02/09 04:03:42;;;;;;;5.85;2.22;;;5.30;99.90;;;;;;5036700;28;20117;-90
2023/02/09 04:06:11;;;;;;;7.03;2.28;;;5.30;99.90;;;;;;5037226;28;20479;-90
2023/02/09 04:08:37;;;;;;;10.45;2.17;;;5.20;99.90;;;;;;5037309;28;20119;-90
2023/02/09 04:11:03;;;;;;;8.68;2.08;;;5.20;99.90;;;;;;5036869;28;20464;-90
2023/02/09 04:13:28;;;;;;;3.47;1.95;;;5.20;99.90;;;;;;5035999;28;20029;-91
2023/02/09 04:15:54;;;;;;;8.10;2.33;;;5.20;99.90;;;;;;5035508;28;20021;-90
2023/02/09 04:18:20;;;;;;;5.38;2.45;;;5.20;99.90;;;;;;5035080;28;20040;-89
2023/02/09 04:20:46;;;;;;;8.82;2.70;;;5.20;99.90;;;;;;5035774;28;20048;-89
2023/02/09 04:23:12;;;;;;;7.50;2.30;;;5.30;99.90;;;;;;5035672;28;20032;-90
2023/02/09 04:25:37;;;;;;;5.80;2.60;;;5.20;99.90;;;;;;5035829;28;20024;-90
2023/02/09 04:28:03;;;;;;;5.55;2.00;;;5.20;99.90;;;;;;5035532;28;20044;-90
2023/02/09 04:30:29;;;;;;;12.48;2.10;;;5.10;99.90;;;;;;5035525;28;20025;-91
2023/02/09 04:32:55;;;;;;;7.30;2.42;;;5.20;99.90;;;;;;5035981;28;20494;-90
2023/02/09 04:35:20;;;;;;;11.13;2.08;;;5.20;99.90;;;;;;5035889;28;20083;-90
2023/02/09 04:37:46;;;;;;;8.32;1.73;;;5.10;99.90;;;;;;5035312;28;20029;-90
2023/02/09 04:40:12;;;;;;;7.13;1.55;;;5.10;99.90;;;;;;5035508;28;20025;-90
2023/02/09 04:42:37;;;;;;;10.38;2.45;;;5.10;99.90;;;;;;5035907;28;20028;-90
2023/02/09 04:45:04;;;;;;;17.20;3.28;;;5.00;99.90;;;;;;5035655;28;20024;-90
2023/02/09 04:47:30;;;;;;;12.48;2.60;;;5.00;99.90;;;;;;5035199;28;20041;-89
2023/02/09 04:49:56;;;;;;;3.05;1.60;;;5.00;99.90;;;;;;5035366;28;20021;-90
2023/02/09 04:52:21;;;;;;;7.78;2.47;;;5.00;99.90;;;;;;5035270;28;20032;-89
2023/02/09 04:54:47;;;;;;;5.72;1.38;;;5.00;99.90;;;;;;5035333;28;20079;-91
2023/02/09 04:59:57;;;;;;;9.82;1.45;;;4.90;99.90;;;;;;5053697;28;20052;-90
2023/02/09 05:02:22;;;;;;;10.55;1.42;;;4.90;99.90;;;;;;5035276;28;20486;-90
2023/02/09 05:04:48;;;;;;;5.18;1.38;;;4.90;99.90;;;;;;5034951;28;20025;-90
2023/02/09 05:07:13;;;;;;;11.52;1.98;;;4.80;99.90;;;;;;5035381;28;20071;-90
2023/02/09 05:09:39;;;;;;;8.90;1.27;;;4.80;99.90;;;;;;5034862;28;20426;-88
2023/02/09 05:12:08;;;;;;;5.63;1.60;;;4.70;99.90;;;;;;5035327;28;20478;-90
2023/02/09 05:14:34;;;;;;;9.63;1.55;;;4.70;99.90;;;;;;5035178;28;20029;-89
2023/02/09 05:17:00;;;;;;;4.93;1.38;;;4.70;99.90;;;;;;5034981;28;20021;-90
2023/02/09 05:19:26;;;;;;;8.70;1.40;;;4.60;99.90;;;;;;5035458;28;20170;-89
2023/02/09 05:21:51;;;;;;;7.40;1.10;;;4.60;99.90;;;;;;5035042;28;20363;-90
2023/02/09 05:24:17;;;;;;;3.63;1.38;;;4.50;99.90;;;;;;5034983;28;20406;-91
2023/02/09 05:26:43;;;;;;;3.92;1.15;;;4.60;99.90;;;;;;5035745;28;20107;-90
2023/02/09 05:29:08;;;;;;;6.00;1.45;;;4.50;99.90;;;;;;5035969;28;20067;-90
2023/02/09 05:31:34;;;;;;;2.80;1.05;;;4.50;99.90;;;;;;5039937;28;20021;-90
2023/02/09 05:34:00;;;;;;;9.77;1.85;;;4.40;99.90;;;;;;5057633;28;20025;-89
2023/02/09 05:36:25;;;;;;;6.80;1.48;;;4.40;99.90;;;;;;5041010;28;20036;-89
2023/02/09 05:38:51;;;;;;;15.07;2.00;;;4.30;99.90;;;;;;5039779;28;20031;-89
2023/02/09 05:44:01;;;;;;;12.63;2.63;;;4.20;99.90;;;;;;5057665;28;20052;-90
2023/02/09 05:46:27;;;;;;;4.88;1.23;;;4.20;99.90;;;;;;5039206;28;20104;-90
2023/02/09 05:48:52;;;;;;;7.68;1.35;;;4.10;99.90;;;;;;5039537;28;20037;-90
2023/02/09 05:51:18;;;;;;;8.63;1.65;;;4.00;99.90;;;;;;5039803;28;20049;-89
2023/02/09 05:53:44;;;;;;;13.27;2.33;;;4.00;99.90;;;;;;5039269;28;20068;-90
2023/02/09 05:56:10;;;;;;;11.27;2.45;;;3.90;99.90;;;;;;5038770;28;20013;-89
2023/02/09 05:58:36;;;;;;;8.43;1.95;;;3.90;99.90;;;;;;5038765;28;20490;-90
2023/02/09 06:01:04;;;;;;;6.07;1.50;;;3.80;99.90;;;;;;5039261;28;20029;-89
2023/02/09 06:03:30;;;;;;;15.00;1.60;;;3.80;99.90;;;;;;5038706;28;20032;-89
2023/02/09 06:05:55;;;;;;;7.63;2.28;;;3.70;99.90;;;;;;5057451;28;20025;-90
2023/02/09 06:08:21;;;;;;;9.02;1.85;;;3.70;99.90;;;;;;5038873;28;20048;-90
2023/02/09 06:10:47;;;;;;;12.77;3.75;;;3.70;99.90;;;;;;5039127;28;20461;-90
2023/02/09 06:13:12;;;;;;;12.43;1.80;;;3.70;99.90;;;;;;5038992;28;20478;-90
2023/02/09 06:15:38;;;;;;;12.27;1.73;;;3.60;99.90;;;;;;5039004;28;20078;-90
2023/02/09 06:18:04;;;;;;;12.23;2.33;;;3.60;99.90;;;;;;5038901;28;20035;-90
2023/02/09 06:20:29;;;;;;;6.55;1.98;;;3.50;99.90;;;;;;5037927;28;20478;-89
2023/02/09 06:22:55;;;;;;;9.18;1.60;;;3.50;99.90;;;;;;5037965;28;20064;-90
2023/02/09 06:25:20;;;;;;;13.57;1.70;;;3.40;99.90;;;;;;5035097;28;20124;-89
2023/02/09 06:27:46;;;;;;;13.65;1.67;;;3.40;99.90;;;;;;5034004;28;20052;-90
2023/02/09 06:30:12;;;;;;;9.85;1.58;;;3.40;99.90;;;;;;5035424;28;20029;-89
2023/02/09 06:32:38;;;;;;;8.75;1.75;;;3.30;99.90;;;;;;5034298;28;20031;-89
2023/02/09 06:35:04;;;;;;;8.85;1.40;;;3.30;99.90;;;;;;5034396;28;20102;-90
2023/02/09 06:37:29;;;;;;;8.63;1.67;;;3.30;99.90;;;;;;5034575;28;20060;-88
2023/02/09 06:39:55;;;;;;;11.80;1.17;;;3.20;99.90;;;;;;5034348;28;20072;-90
2023/02/09 06:42:20;;;;;;;7.45;1.20;;;3.20;99.90;;;;;;5033898;28;20049;-89
2023/02/09 06:44:46;;;;;;;6.55;2.05;;;3.20;99.90;;;;;;5034175;28;20025;-89
2023/02/09 06:47:12;;;;;;;7.32;1.58;;;3.20;99.90;;;;;;5033093;28;20045;-89
2023/02/09 06:49:37;;;;;;;11.43;1.88;;;3.10;99.90;;;;;;5035069;28;20099;-88
2023/02/09 06:52:04;;;;;;;8.02;1.90;;;3.10;99.90;;;;;;5034576;28;20021;-88
2023/02/09 06:54:29;;;;;;;4.40;1.50;;;3.00;99.90;;;;;;5034250;28;20082;-88
2023/02/09 06:56:55;;;;;;;13.23;1.48;;;3.00;99.90;;;;;;5034266;28;20104;-90
2023/02/09 06:59:21;;;;;;;15.27;1.63;;;2.90;99.90;;;;;;5034183;28;20043;-89
2023/02/09 07:01:50;;;;;;;7.50;1.38;;;2.90;99.90;;;;;;5034978;28;20055;-90
2023/02/09 07:04:15;;;;;;;6.85;1.20;;;2.90;99.90;;;;;;5034125;28;20104;-89
2023/02/09 07:06:41;;;;;;;7.78;1.40;;;2.80;99.90;;;;;;5034306;28;20545;-90
2023/02/09 07:09:07;;;;;;;8.10;1.27;;;2.80;99.90;;;;;;5033793;28;20021;-91
2023/02/09 07:11:32;;;;;;;7.20;1.13;;;2.80;99.90;;;;;;5030860;28;20248;-90
2023/02/09 07:13:58;;;;;;;6.55;1.25;;;2.70;99.90;;;;;;5030998;28;20106;-91
2023/02/09 07:16:24;;;;;;;13.05;1.40;;;2.70;99.90;;;;;;5040086;28;20021;-91
2023/02/09 07:18:49;;;;;;;14.85;2.05;;;2.70;99.90;;;;;;5039504;28;20021;-90
2023/02/09 07:21:18;;;;;;;7.47;1.83;;;2.70;99.90;;;;;;5039334;28;20621;-91
2023/02/09 07:23:45;;;;;;;10.55;1.95;;;2.60;99.90;;;;;;5038423;28;20042;-91
2023/02/09 07:26:15;;;;;;;12.00;2.25;;;2.60;99.90;;;;;;5038566;28;20017;-89
2023/02/09 07:28:42;;;;;;;12.38;2.25;;;2.50;99.90;;;;;;5036635;28;20055;-91
2023/02/09 07:31:10;;;;;;;13.07;1.63;;;2.40;99.90;;;;;;5037037;28;20074;-90
2023/02/09 07:33:36;;;;;;;8.88;1.70;;;2.40;99.90;;;;;;5037269;28;20108;-91
2023/02/09 07:36:06;;;;;;;8.63;2.08;;;2.30;99.90;;;;;;5037066;28;20037;-90
2023/02/09 07:38:32;;;;;;;5.63;1.80;;;2.30;99.90;;;;;;5036972;28;20100;-92
2023/02/09 07:41:00;;;;;;;7.55;1.60;;;2.20;99.90;;;;;;5037610;28;20025;-91
2023/02/09 07:43:26;;;;;;;12.50;1.92;;;2.20;99.90;;;;;;5037433;28;20021;-91
2023/02/09 07:45:52;;;;;;;16.80;1.85;;;2.20;99.90;;;;;;5037678;28;20029;-91
2023/02/09 07:48:17;;;;;;;4.13;1.50;;;2.20;99.90;;;;;;5035622;28;20537;-92
2023/02/09 07:50:50;;;;;;;13.35;2.10;;;2.10;99.90;;;;;;5035947;28;20037;-91
2023/02/09 07:53:16;;;;;;;11.20;1.95;;;2.10;99.90;;;;;;5017440;28;20025;-92
2023/02/09 07:55:41;;;;;;;17.65;2.10;;;2.00;99.90;;;;;;5018098;28;20040;-93
2023/02/09 07:58:07;;;;;;;14.18;2.00;;;2.00;99.90;;;;;;5031886;28;20040;-92
2023/02/09 08:00:33;;;;;;;18.65;3.97;;;1.90;99.90;;;;;;5046347;28;20021;-93
2023/02/09 08:02:59;;;;;;;6.50;1.50;;;1.90;99.90;;;;;;5046220;28;20118;-90
2023/02/09 08:05:31;;;;;;;11.65;2.00;;;1.90;99.90;;;;;;5057008;28;20021;-90
2023/02/09 08:07:57;;;;;;;13.38;2.35;;;2.00;99.90;;;;;;5036161;28;20036;-90
2023/02/09 08:10:23;;;;;;;13.55;2.92;;;2.10;99.90;;;;;;5044897;28;20017;-89
2023/02/09 08:13:04;;;;;;;12.20;3.15;;;2.10;99.90;;;;;;5036298;28;20044;-88
2023/02/09 08:15:51;;;;;;;13.57;4.50;;;2.10;99.90;;;;;;5035517;28;20021;-89
2023/02/09 08:18:21;;;;;;;16.40;5.93;;;2.20;99.90;;;;;;5036264;28;20090;-89
2023/02/09 08:20:47;;;;;;;;;;;2.20;99.90;;;;;;5036561;28;20486;-89
2023/02/09 08:23:34;;;;;;;17.13;5.80;;;2.30;99.90;;;;;;5036136;28;19936;-89
2023/02/09 08:26:05;;;;;;;11.25;4.63;;;2.30;99.90;;;;;;5039240;28;20041;-89
2023/02/09 08:28:31;;;;;;;10.77;3.78;;;2.40;99.90;;;;;;5034023;28;20044;-89
2023/02/09 08:30:57;;;;;;;14.23;4.22;;;2.30;99.90;;;;;;5034521;28;20077;-89
2023/02/09 08:33:23;;;;;;;13.27;3.13;;;2.40;99.90;;;;;;5041143;28;20036;-88
2023/02/09 08:35:51;;;;;;;11.35;3.15;;;2.40;99.90;;;;;;5043867;28;20500;-92
2023/02/09 08:38:18;;;;;;;6.97;2.47;;;2.40;99.90;;;;;;5046382;28;20088;-91
2023/02/09 08:40:44;;;;;;;11.38;2.78;;;2.40;99.90;;;;;;5047324;28;20029;-90
2023/02/09 08:43:12;;;;;;;12.02;2.45;;;2.40;99.90;;;;;;5038878;28;20055;-90
2023/02/09 08:45:39;;;;;;;4.38;1.77;;;2.40;99.90;;;;;;5034679;28;20029;-90
2023/02/09 08:48:08;;;;;;;12.70;2.20;;;2.50;99.90;;;;;;5033336;28;20053;-92
2023/02/09 08:50:34;;;;;;;8.82;1.70;;;2.50;99.90;;;;;;5043585;28;20025;-92
2023/02/09 08:53:01;;;;;;;5.50;2.08;;;2.50;99.90;;;;;;5034448;28;20501;-93
2023/02/09 08:55:31;;;;;;;9.35;1.92;;;2.60;99.90;;;;;;5035010;28;20238;-92
2023/02/09 08:57:57;;;;;;;10.77;2.90;;;2.60;99.90;;;;;;5039808;28;20033;-91
2023/02/09 09:00:23;;;;;;;11.13;2.78;;;2.60;99.90;;;;;;5042295;28;20108;-92
2023/02/09 09:02:49;;;;;;;7.68;2.22;;;2.60;99.90;;;;;;5039983;28;20083;-92
2023/02/09 09:05:14;;;;;;;13.82;3.25;;;2.60;99.90;;;;;;5043887;28;20039;-91
2023/02/09 09:07:40;;;;;;;11.57;3.53;;;2.60;99.90;;;;;;5042637;28;20465;-91
2023/02/09 09:10:07;;;;;;;9.40;2.80;;;2.60;99.90;;;;;;5040798;28;20025;-90
2023/02/09 09:12:34;;;;;;;16.98;3.97;;;2.60;99.90;;;;;;5038639;28;20421;-92
2023/02/09 09:15:00;;;;;;;12.38;4.07;;;2.70;99.90;;;;;;5019856;28;20102;-91
2023/02/09 09:17:26;;;;;;;18.98;5.60;;;2.70;99.90;;;;;;5038502;28;20470;-92
2023/02/09 09:19:54;;;;;;;16.23;5.30;;;2.70;99.90;;;;;;5038995;28;20021;-92
2023/02/09 09:22:21;;;;;;;14.93;6.47;;;2.70;99.90;;;;;;5036018;28;20110;-91
2023/02/09 09:24:47;;;;;;;21.23;6.38;;;2.80;99.90;;;;;;5038201;28;20017;-93
2023/02/09 09:27:13;;;;;;;24.73;6.70;;;2.80;99.90;;;;;;5038790;28;20033;-92
2023/02/09 09:29:39;;;;;;;11.88;4.20;;;2.80;99.90;;;;;;5039433;28;20540;-92
2023/02/09 09:32:05;;;;;;;17.55;5.35;;;2.90;99.90;;;;;;5039177;28;20024;-92
2023/02/09 09:34:30;;;;;;;15.55;4.60;;;2.90;99.90;;;;;;5038525;28;20090;-93
2023/02/09 09:36:56;;;;;;;16.08;3.90;;;3.00;99.90;;;;;;5046276;28;20029;-92
2023/02/09 09:39:23;;;;;;;14.18;3.50;;;3.10;99.90;;;;;;5040719;28;20512;-92
2023/02/09 09:41:54;;;;;;;18.98;4.93;;;3.10;99.90;;;;;;5038535;28;20082;-91
2023/02/09 09:44:39;;;;;;;13.48;3.55;;;3.30;99.90;;;;;;5039138;28;20021;-92
2023/02/09 09:47:13;;;;;;;11.73;3.08;;;3.50;99.90;;;;;;5034135;28;20071;-90
2023/02/09 09:49:39;;;;;;;16.17;2.83;;;3.70;99.90;;;;;;5037682;28;20017;-92
2023/02/09 09:52:12;;;;;;;22.42;3.30;;;4.00;99.90;;;;;;5038163;28;20566;-92
2023/02/09 09:54:40;;;;;;;22.58;2.95;;;4.30;99.90;;;;;;5037810;28;20017;-92
2023/02/09 09:57:29;;;;;;;16.55;2.17;;;4.60;99.90;;;;;;5038008;28;20496;-92
2023/02/09 09:59:55;;;;;;;20.45;3.30;;;4.80;99.90;;;;;;5038333;28;20028;-92
2023/02/09 10:02:29;;;;;;;15.88;3.30;;;5.10;99.90;;;;;;5037549;28;20433;-91
2023/02/09 10:05:01;;;;;;;12.23;2.28;;;5.40;99.90;;;;;;5037818;28;20032;-92
2023/02/09 10:07:31;;;;;;;26.58;3.58;;;5.70;99.90;;;;;;5038022;28;20036;-91
2023/02/09 10:10:02;;;;;;;14.70;3.08;;;6.00;99.90;;;;;;5038180;28;20025;-92
2023/02/09 10:12:40;;;;;;;13.40;2.67;;;6.30;99.90;;;;;;5037919;28;20032;-91
2023/02/09 10:15:26;;;;;;;15.30;3.03;;;6.50;99.90;;;;;;5035479;28;20025;-90
2023/02/09 10:17:53;;;;;;;25.98;4.15;;;6.80;99.90;;;;;;5056920;28;20032;-90
2023/02/09 10:20:40;;;;;;;11.60;2.33;;;7.00;99.90;;;;;;5041672;28;20036;-91
2023/02/09 10:23:12;;;;;;;14.27;2.58;;;7.20;99.90;;;;;;5042481;28;20025;-91
2023/02/09 10:25:59;;;;;;;24.30;3.20;;;7.40;99.90;;;;;;5059571;28;20036;-91
2023/02/09 10:28:30;;;;;;;13.93;2.83;;;7.70;99.90;;;;;;5039401;28;20045;-92
2023/02/09 10:31:00;;;;;;;15.57;2.90;;;8.10;99.90;;;;;;5039892;28;20029;-92
2023/02/09 10:33:28;;;;;;;18.35;2.50;;;8.40;99.90;;;;;;5039427;28;20102;-91
2023/02/09 10:35:58;;;;;;;14.43;3.05;;;8.70;99.90;;;;;;5040560;28;20029;-92
2023/02/09 10:38:29;;;;;;;15.93;2.45;;;8.90;99.90;;;;;;5039450;28;20021;-92
2023/02/09 10:40:55;;;;;;;16.60;2.65;;;9.20;99.90;;;;;;5055865;28;20096;-92
2023/02/09 10:43:31;;;;;;;19.83;2.70;;;9.40;99.90;;;;;;5037201;28;20113;-92
2023/02/09 10:45:59;;;;;;;17.88;3.42;;;9.60;99.90;;;;;;5037937;28;20552;-92
2023/02/09 10:48:27;;;;;;;14.15;2.92;;;9.80;99.90;;;;;;5037575;28;20536;-91
2023/02/09 10:51:11;;;;;;;13.98;3.28;;;10.00;99.90;;;;;;5037991;28;20074;-92
2023/02/09 10:53:40;;;;;;;10.80;2.38;;;10.00;99.90;;;;;;5037996;28;20032;-91
2023/02/09 10:56:14;;;;;;;12.00;2.28;;;10.10;99.90;;;;;;5037580;28;20494;-92
2023/02/09 10:58:40;;;;;;;10.70;1.70;;;10.10;99.90;;;;;;5036873;28;20060;-91
2023/02/09 11:01:23;;;;;;;11.70;2.08;;;10.30;99.90;;;;;;5054256;28;20028;-91
2023/02/09 11:04:14;;;;;;;16.98;2.75;;;10.40;98.10;;;;;;5036803;28;20028;-91
2023/02/09 11:06:47;;;;;;;14.45;2.30;;;10.60;97.40;;;;;;5024046;28;20036;-91
2023/02/09 11:09:16;;;;;;;9.65;1.98;;;10.70;95.20;;;;;;5037904;28;20040;-91
2023/02/09 11:11:43;;;;;;;17.40;2.63;;;10.70;94.50;;;;;;5037704;28;20025;-91
2023/02/09 11:14:12;;;;;;;8.25;1.77;;;10.80;93.60;;;;;;5037299;28;20037;-91
2023/02/09 11:16:43;;;;;;;10.77;2.03;;;10.90;92.90;;;;;;5038700;28;20017;-91
2023/02/09 11:19:27;;;;;;;13.02;1.95;;;10.90;92.40;;;;;;5037681;28;20037;-92
2023/02/09 11:22:06;;;;;;;11.57;2.42;;;10.90;91.10;;;;;;5037652;28;20108;-91
2023/02/09 11:24:43;;;;;;;13.93;3.28;;;10.80;90.00;;;;;;5037357;28;20035;-91
2023/02/09 11:27:44;;;;;;;10.80;2.55;;;10.80;90.00;;;;;;5036435;28;20032;-91
2023/02/09 11:30:37;;;;;;;9.32;1.88;;;10.90;88.80;;;;;;5037535;28;20025;-91
2023/02/09 11:33:29;;;;;;;14.15;2.67;;;10.80;87.70;;;;;;5038334;28;20032;-91
2023/02/09 11:36:22;;;;;;;15.00;2.20;;;10.90;87.80;;;;;;5037142;28;20094;-91
2023/02/09 11:38:56;;;;;;;19.35;2.20;;;11.10;86.80;;;;;;5037373;28;20021;-91
2023/02/09 11:44:40;;;;;;;12.07;1.95;;;11.00;84.90;;;;;;5054455;28;20109;-92
2023/02/09 11:47:12;;;;;;;8.73;2.22;;;11.00;84.90;;;;;;5036897;28;20037;-91
2023/02/09 11:49:50;;;;;;;15.30;2.30;;;11.10;85.20;;;;;;5038638;28;20057;-92
2023/02/09 11:52:27;;;;;;;14.77;2.40;;;11.20;83.60;;;;;;5036824;28;20059;-92
2023/02/09 11:55:00;;;;;;;6.85;1.60;;;11.10;83.70;;;;;;5037187;28;20508;-91
2023/02/09 11:57:42;;;;;;;13.90;2.15;;;11.20;83.40;;;;;;5054071;28;20033;-91
2023/02/09 12:00:18;;;;;;;13.23;2.22;;;11.20;82.70;;;;;;5036265;28;20013;-89
2023/02/09 12:03:19;;;;;;;13.82;2.15;;;11.30;82.40;;;;;;5035754;28;20554;-91
2023/02/09 12:05:45;;;;;;;20.17;2.83;;;11.40;82.20;;;;;;4992622;28;20048;-91
2023/02/09 12:08:32;;;;;;;14.93;3.35;;;11.50;82.10;;;;;;4976282;28;20129;-91
2023/02/09 12:11:12;;;;;;;11.93;2.15;;;11.70;81.40;;;;;;4993007;28;20066;-91
2023/02/09 12:14:15;;;;;;;13.23;2.30;;;11.70;81.20;;;;;;4976334;28;20038;-91
2023/02/09 12:16:46;;;;;;;8.50;1.77;;;11.60;80.60;;;;;;4991947;28;20032;-90
2023/02/09 12:19:39;;;;;;;12.07;2.13;;;11.50;80.30;;;;;;4981085;28;20027;-92
2023/02/09 12:22:51;;;;;;;10.82;2.50;;;11.50;80.80;;;;;;4990999;28;20113;-91
2023/02/09 12:25:19;;;;;;;17.73;1.80;;;11.40;80.90;;;;;;4971824;28;20043;-92
2023/02/09 12:28:11;;;;;;;10.98;2.30;;;11.40;81.10;;;;;;4992850;28;20503;-91
2023/02/09 12:30:39;;;;;;;12.43;2.40;;;11.50;81.00;;;;;;4983706;28;20043;-91
2023/02/09 12:33:19;;;;;;;16.42;2.35;;;11.50;80.50;;;;;;4966324;28;20082;-91
2023/02/09 12:36:08;;;;;;;16.30;2.53;;;11.80;80.70;;;;;;4971803;28;20022;-91
2023/02/09 12:38:49;;;;;;;19.15;3.55;;;11.80;79.40;;;;;;4991344;28;20038;-92
2023/02/09 12:41:35;;;;;;;;;;;11.70;78.30;;;;;;5016930;28;20182;-92
2023/02/09 12:44:23;;;;;;;14.32;2.13;;;11.60;77.90;;;;;;4982160;28;19951;-92
2023/02/09 12:46:53;;;;;;;15.35;2.28;;;11.40;78.30;;;;;;5023130;28;20029;-92
2023/02/09 12:49:26;;;;;;;;;;;11.40;78.60;;;;;;5029553;28;20045;-92
2023/02/09 12:51:54;;;;;;;11.20;1.63;;;11.50;78.60;;;;;;5053549;28;19952;-92
2023/02/09 12:54:56;;;;;;;14.30;2.08;;;11.60;78.10;;;;;;5034660;28;20100;-92
2023/02/09 12:57:22;;;;;;;12.02;1.90;;;11.40;77.60;;;;;;5052938;28;20025;-91
2023/02/09 13:00:02;;;;;;;13.10;1.90;;;11.40;78.00;;;;;;5032750;28;20550;-92
2023/02/09 13:02:48;;;;;;;12.27;2.25;;;11.30;78.30;;;;;;5031526;28;20116;-89
2023/02/09 13:05:26;;;;;;;11.02;1.90;;;11.40;78.60;;;;;;5035260;28;20033;-92
2023/02/09 13:08:05;;;;;;;13.45;2.45;;;11.70;78.30;;;;;;5035937;28;20097;-90
2023/02/09 13:10:52;;;;;;;14.25;1.90;;;12.00;77.80;;;;;;5036600;28;20029;-92
2023/02/09 13:13:45;;;;;;;15.65;1.65;;;12.20;76.80;;;;;;5036108;28;20541;-91
2023/02/09 13:16:33;;;;;;;12.23;1.88;;;12.20;75.40;;;;;;5036063;28;20036;-91
2023/02/09 13:19:08;;;;;;;12.05;1.73;;;12.40;75.40;;;;;;5036137;28;20060;-91
2023/02/09 13:22:11;;;;;;;7.18;1.45;;;12.60;75.40;;;;;;5036192;28;20025;-92